createdAt,value
2023-03-15T00:05:12.821Z,6.22
2023-03-15T00:10:36.805Z,3.84
2023-03-15T00:15:55.837Z,4.49
2023-03-15T00:21:18.463Z,3.37
2023-03-15T00:26:42.376Z,4.58
2023-03-15T00:32:07.650Z,5.80
2023-03-15T00:37:31.349Z,5.72
2023-03-15T00:42:55.320Z,5.50
2023-03-15T00:48:13.846Z,6.59
2023-03-15T00:53:32.653Z,5.05
2023-03-15T00:58:51.998Z,6.00
2023-03-15T01:04:33.998Z,5.71
2023-03-15T01:09:57.402Z,8.02
2023-03-15T01:15:18.129Z,5.99
2023-03-15T01:20:42.036Z,7.30
2023-03-15T01:26:15.465Z,10.14
2023-03-15T01:31:33.999Z,5.37
2023-03-15T01:37:00.238Z,4.44
2023-03-15T01:42:23.818Z,4.76
2023-03-15T01:47:42.368Z,4.19
2023-03-15T01:53:33.499Z,3.63
2023-03-15T01:58:55.047Z,4.94
2023-03-15T02:04:17.387Z,3.35
2023-03-15T02:09:59.490Z,3.67
2023-03-15T02:15:24.687Z,3.46
2023-03-15T02:20:49.254Z,6.97
2023-03-15T02:26:35.045Z,4.79
2023-03-15T02:32:41.149Z,4.08
2023-03-15T02:38:02.703Z,1.62
2023-03-15T02:43:21.233Z,2.01
2023-03-15T02:48:39.506Z,2.19
2023-03-15T02:53:58.184Z,3.70
2023-03-15T02:59:22.242Z,4.37
2023-03-15T03:04:40.640Z,5.57
2023-03-15T03:10:29.596Z,3.10
2023-03-15T03:15:52.286Z,2.10
2023-03-15T03:22:02.926Z,4.68
2023-03-15T03:27:26.257Z,4.94
2023-03-15T03:32:50.650Z,2.90
2023-03-15T03:38:14.410Z,1.90
2023-03-15T03:43:38.992Z,5.06
2023-03-15T03:48:57.569Z,3.19
2023-03-15T03:54:22.389Z,3.37
2023-03-15T03:59:47.298Z,3.63
2023-03-15T04:05:08.916Z,4.76
2023-03-15T04:10:34.361Z,4.82
2023-03-15T04:15:54.436Z,2.51
2023-03-15T04:21:18.814Z,5.69
2023-03-15T04:26:37.161Z,3.72
2023-03-15T04:32:02.502Z,7.57
2023-03-15T04:37:28.947Z,4.35
2023-03-15T04:42:54.640Z,3.81
2023-03-15T04:48:17.906Z,2.44
2023-03-15T04:53:41.335Z,3.85
2023-03-15T04:58:59.648Z,3.77
2023-03-15T05:04:18.107Z,3.67
2023-03-15T05:09:43.205Z,2.63
2023-03-15T05:15:08.163Z,2.89
2023-03-15T05:20:33.032Z,4.58
2023-03-15T05:25:57.535Z,4.93
2023-03-15T05:31:21.487Z,2.55
2023-03-15T05:36:40.405Z,6.18
2023-03-15T05:42:04.910Z,5.15
2023-03-15T05:47:29.818Z,3.82
2023-03-15T05:52:48.221Z,2.93
2023-03-15T05:58:24.980Z,6.74
2023-03-15T06:03:50.010Z,8.54
2023-03-15T06:09:14.758Z,3.16
2023-03-15T06:15:01.516Z,6.30
2023-03-15T06:20:21.700Z,5.28
2023-03-15T06:25:46.343Z,9.98
2023-03-15T06:31:10.743Z,4.23
2023-03-15T06:36:56.166Z,4.11
2023-03-15T06:42:19.937Z,6.96
2023-03-15T06:47:44.816Z,4.94
2023-03-15T06:53:08.155Z,4.64
2023-03-15T06:58:30.849Z,5.30
2023-03-15T07:03:55.742Z,4.71
2023-03-15T07:09:20.633Z,3.96
2023-03-15T07:14:46.253Z,3.81
2023-03-15T07:20:10.991Z,5.11
2023-03-15T07:25:58.329Z,5.16
2023-03-15T07:31:22.478Z,5.97
2023-03-15T07:36:46.748Z,4.73
2023-03-15T07:42:29.254Z,5.36
2023-03-15T07:47:54.825Z,7.96
2023-03-15T07:53:16.259Z,4.99
2023-03-15T07:58:41.327Z,5.86
2023-03-15T08:04:04.577Z,3.96
2023-03-15T08:09:29.715Z,4.27
2023-03-15T08:14:53.208Z,4.56
2023-03-15T08:20:18.517Z,4.37
2023-03-15T08:25:39.716Z,8.69
2023-03-15T08:30:58.565Z,5.34
2023-03-15T08:37:26.011Z,6.09
2023-03-15T08:43:05.435Z,6.08
2023-03-15T08:48:28.637Z,5.88
2023-03-15T08:53:46.982Z,5.98
2023-03-15T08:59:10.249Z,5.07
2023-03-15T09:04:34.858Z,4.29
2023-03-15T09:09:58.951Z,4.38
2023-03-15T09:15:25.496Z,4.91
2023-03-15T09:21:12.007Z,6.00
2023-03-15T09:26:29.453Z,6.39
2023-03-15T09:32:12.538Z,7.63
2023-03-15T09:37:35.510Z,5.64
2023-03-15T09:42:58.684Z,10.19
2023-03-15T09:48:17.802Z,6.35
2023-03-15T09:53:37.326Z,7.14
2023-03-15T09:59:02.093Z,5.88
2023-03-15T10:04:27.758Z,5.99
2023-03-15T10:10:38.019Z,7.26
2023-03-15T10:16:01.980Z,4.52
2023-03-15T10:21:29.733Z,4.98
2023-03-15T10:26:59.701Z,8.69
2023-03-15T10:32:31.927Z,8.47
2023-03-15T10:37:56.827Z,6.53
2023-03-15T10:43:21.999Z,3.87
2023-03-15T10:48:40.761Z,4.52
2023-03-15T10:54:12.056Z,7.33
2023-03-15T10:59:57.560Z,7.41
2023-03-15T11:05:17.612Z,8.97
2023-03-15T11:10:46.176Z,6.28
2023-03-15T11:16:15.121Z,6.33
2023-03-15T11:38:15.418Z,6.93
2023-03-15T11:43:33.090Z,7.08
2023-03-15T11:48:53.384Z,7.21
2023-03-15T11:54:18.953Z,5.04
2023-03-15T11:59:45.940Z,7.20
2023-03-15T12:05:17.899Z,7.05
2023-03-15T12:10:47.897Z,6.98
2023-03-15T12:16:06.691Z,6.55
2023-03-15T12:21:31.435Z,5.84
2023-03-15T12:26:52.169Z,6.69
2023-03-15T12:32:19.987Z,9.25
2023-03-15T12:37:41.510Z,10.11
2023-03-15T12:43:06.051Z,8.52
2023-03-15T12:48:30.843Z,8.64
2023-03-15T12:53:49.762Z,7.16
2023-03-15T12:59:08.743Z,6.98
2023-03-15T13:04:49.679Z,7.62
2023-03-15T13:10:13.788Z,6.48
2023-03-15T13:15:48.934Z,5.23
2023-03-15T13:21:26.017Z,7.98
2023-03-15T13:26:45.373Z,4.92
2023-03-15T13:32:12.328Z,4.51
2023-03-15T13:37:36.879Z,6.15
2023-03-15T13:43:26.578Z,5.28
2023-03-15T13:48:47.211Z,6.28
2023-03-15T13:54:06.007Z,3.42
2023-03-15T13:59:59.825Z,4.54
2023-03-15T14:05:20.363Z,4.08
2023-03-15T14:10:39.863Z,3.23
2023-03-15T14:16:04.866Z,3.36
2023-03-15T14:21:31.382Z,2.54
2023-03-15T14:26:56.798Z,2.79
2023-03-15T14:32:21.891Z,2.65
2023-03-15T14:38:05.713Z,3.03
2023-03-15T14:43:33.508Z,4.57
2023-03-15T14:48:58.742Z,2.02
2023-03-15T14:54:23.310Z,3.28
2023-03-15T15:00:00.765Z,2.27
2023-03-15T15:05:24.084Z,2.30
2023-03-15T15:10:48.841Z,1.71
2023-03-15T15:16:14.171Z,1.34
2023-03-15T15:21:39.534Z,1.67
2023-03-15T15:27:02.746Z,2.24
2023-03-15T15:32:54.672Z,2.44
2023-03-15T15:38:12.072Z,1.92
2023-03-15T15:43:33.895Z,0.77
2023-03-15T15:49:01.010Z,2.13
2023-03-15T15:54:42.328Z,0.97
2023-03-15T16:00:00.702Z,0.93
2023-03-15T16:05:28.161Z,1.42
2023-03-15T16:10:50.170Z,1.05
2023-03-15T16:16:15.333Z,1.27
2023-03-15T16:21:34.377Z,1.39
2023-03-15T16:26:52.962Z,1.51
2023-03-15T16:32:43.905Z,1.90
2023-03-15T16:37:58.146Z,1.13
2023-03-15T16:43:20.860Z,1.18
2023-03-15T16:48:46.016Z,1.96
2023-03-15T16:54:21.817Z,1.35
2023-03-15T16:59:35.318Z,1.64
2023-03-15T17:04:59.987Z,2.23
2023-03-15T17:10:19.651Z,3.30
2023-03-15T17:21:06.534Z,2.28
2023-03-15T17:26:28.369Z,1.99
2023-03-15T17:31:54.123Z,2.12
2023-03-15T17:37:14.474Z,3.20
2023-03-15T17:42:38.752Z,2.29
2023-03-15T17:48:03.139Z,5.31
2023-03-15T17:53:25.864Z,8.76
2023-03-15T17:58:44.989Z,6.73
2023-03-15T18:04:06.315Z,7.75
2023-03-15T18:09:25.674Z,8.00
2023-03-15T18:14:52.070Z,7.59
2023-03-15T18:20:41.058Z,7.87
2023-03-15T18:26:05.999Z,9.33
2023-03-15T18:31:29.763Z,10.46
2023-03-15T18:36:53.956Z,7.92
2023-03-15T18:42:15.896Z,6.51
2023-03-15T18:47:39.807Z,5.81
2023-03-15T18:52:58.514Z,6.05
2023-03-15T18:58:17.216Z,5.38
2023-03-15T19:03:56.546Z,6.42
2023-03-15T19:09:14.720Z,4.99
2023-03-15T19:14:39.712Z,10.46
2023-03-15T19:20:04.964Z,9.42
2023-03-15T19:25:26.168Z,9.04
2023-03-15T19:30:54.737Z,8.09
2023-03-15T19:36:19.188Z,8.51
2023-03-15T19:41:37.857Z,8.08
2023-03-15T19:47:23.286Z,6.85
2023-03-15T19:52:47.220Z,6.48
2023-03-15T19:58:12.502Z,6.62
2023-03-15T20:03:31.409Z,10.11
2023-03-15T20:08:49.819Z,6.80
2023-03-15T20:14:08.331Z,9.73
2023-03-15T20:19:33.033Z,7.82
2023-03-15T20:24:55.083Z,8.21
2023-03-15T20:30:19.285Z,9.93
2023-03-15T20:35:37.831Z,8.39
2023-03-15T20:40:56.290Z,6.60
2023-03-15T20:46:19.686Z,7.69
2023-03-15T20:51:44.433Z,6.80
2023-03-15T20:57:06.862Z,9.65
2023-03-15T21:02:31.359Z,7.21
2023-03-15T21:07:56.160Z,7.47
2023-03-15T21:13:19.557Z,8.62
2023-03-15T21:18:38.276Z,7.28
2023-03-15T21:24:02.208Z,7.36
2023-03-15T21:29:27.775Z,5.58
2023-03-15T21:34:52.230Z,5.41
2023-03-15T21:40:17.279Z,9.72
2023-03-15T21:45:42.741Z,8.00
2023-03-15T21:51:04.953Z,5.83
2023-03-15T21:56:29.768Z,7.21
2023-03-15T22:01:53.420Z,6.94
2023-03-15T22:07:12.218Z,6.32
2023-03-15T22:12:37.534Z,7.31
2023-03-15T22:18:12.589Z,5.75
2023-03-15T22:23:35.852Z,5.05
2023-03-15T22:29:00.508Z,5.56
2023-03-15T22:34:45.757Z,6.96
2023-03-15T22:40:03.185Z,7.38
2023-03-15T22:45:25.377Z,5.88
2023-03-15T22:50:50.581Z,4.77
2023-03-15T22:56:12.810Z,4.85
2023-03-15T23:01:37.715Z,8.04
2023-03-15T23:07:00.164Z,4.27
2023-03-15T23:12:35.361Z,3.73
2023-03-15T23:17:50.553Z,4.95
2023-03-15T23:23:09.560Z,4.33
2023-03-15T23:28:34.026Z,6.16
2023-03-15T23:33:57.454Z,4.99
2023-03-15T23:39:19.156Z,5.49
2023-03-15T23:44:44.649Z,5.54
2023-03-15T23:50:08.835Z,4.30
2023-03-15T23:55:34.441Z,3.69
